Time;durP1;ratioP1;P1;durP2;ratioP2;P2;SDS_P1;SDS_P2;PMS_P1;PMS_P2;Temp;Humidity;BMP_temperature;BMP_pressure;BME280_temperature;BME280_humidity;BME280_pressure;Samples;Min_cycle;Max_cycle;Signal;HPM_P1;HPM_P2
2024/01/12 00:04:15;;;;;;;0.38;0.22;;;;;;;-146.30;100.00;58188.94;10508077;28;20046;-83
2024/01/12 00:09:17;;;;;;;0.28;0.28;;;;;;;-146.30;100.00;58188.94;10484315;28;20143;-83
2024/01/12 00:14:19;;;;;;;0.20;0.20;;;;;;;-146.30;100.00;58188.94;10502111;28;20047;-83
2024/01/12 00:19:21;;;;;;;0.38;0.38;;;;;;;-146.30;100.00;58188.94;10484075;28;20415;-83
2024/01/12 00:24:23;;;;;;;0.98;0.88;;;;;;;-146.30;100.00;58188.94;10481648;28;20435;-83
2024/01/12 00:29:25;;;;;;;0.65;0.65;;;;;;;-146.30;100.00;58188.94;10481920;28;20502;-83
2024/01/12 00:34:27;;;;;;;3.20;1.10;;;;;;;-146.30;100.00;58188.94;10481380;28;20048;-83
2024/01/12 00:39:29;;;;;;;0.00;0.00;;;;;;;-146.30;100.00;58188.94;10498079;28;20048;-83
2024/01/12 00:44:31;;;;;;;4.97;1.40;;;;;;;-146.30;100.00;58188.94;10481212;28;20140;-83
2024/01/12 00:49:34;;;;;;;0.73;0.73;;;;;;;-146.30;100.00;58188.94;10514782;28;20041;-83
2024/01/12 00:54:36;;;;;;;0.28;0.28;;;;;;;-146.30;100.00;58188.94;10476322;28;20110;-83
2024/01/12 00:59:38;;;;;;;0.00;0.00;;;;;;;-146.30;100.00;58188.94;10456142;28;20500;-83
2024/01/12 01:04:40;;;;;;;0.00;0.00;;;;;;;-146.30;100.00;58188.94;10450657;28;20047;-83
2024/01/12 01:09:42;;;;;;;0.00;0.00;;;;;;;-146.30;100.00;58188.94;10441600;28;20048;-83
2024/01/12 01:14:44;;;;;;;0.43;0.43;;;;;;;-146.30;100.00;58188.94;10448972;28;20045;-83
2024/01/12 01:19:46;;;;;;;0.38;0.38;;;;;;;-146.30;100.00;58188.94;10480916;28;20045;-83
2024/01/12 01:24:48;;;;;;;0.20;0.20;;;;;;;-146.30;100.00;58188.94;10480186;28;20040;-83
2024/01/12 01:29:50;;;;;;;0.10;0.10;;;;;;;-146.30;100.00;58188.94;10496605;28;20567;-83
2024/01/12 01:34:52;;;;;;;0.90;0.52;;;;;;;-146.30;100.00;58188.94;10495916;28;20040;-83
2024/01/12 01:39:54;;;;;;;0.22;0.22;;;;;;;-146.30;100.00;58188.94;10479873;28;20091;-83
2024/01/12 01:44:56;;;;;;;0.93;0.73;;;;;;;-146.30;100.00;58188.94;10479634;28;20045;-83
2024/01/12 01:49:58;;;;;;;3.30;0.43;;;;;;;-146.30;100.00;58188.94;10479582;28;20056;-83
2024/01/12 01:55:00;;;;;;;0.28;0.28;;;;;;;-146.30;100.00;58188.94;10479043;28;20040;-83
2024/01/12 02:00:03;;;;;;;0.00;0.00;;;;;;;-146.30;100.00;58188.94;10479481;28;20048;-84
2024/01/12 02:05:14;;;;;;;0.00;0.00;;;;;;;-146.30;100.00;58188.94;10480659;28;20631;-84
2024/01/12 02:10:16;;;;;;;0.30;0.30;;;;;;;-146.30;100.00;58188.94;10479677;28;20052;-84
2024/01/12 02:15:18;;;;;;;1.45;0.52;;;;;;;-146.30;100.00;58188.94;10479147;28;20132;-84
2024/01/12 02:20:20;;;;;;;0.20;0.20;;;;;;;-146.30;100.00;58188.94;10507702;28;20068;-84
2024/01/12 02:25:22;;;;;;;2.40;2.20;;;;;;;-146.30;100.00;58188.94;10478939;28;20067;-84
2024/01/12 02:30:27;;;;;;;0.32;0.32;;;;;;;-146.30;100.00;58188.94;10478848;28;20476;-84
2024/01/12 02:35:28;;;;;;;0.30;0.30;;;;;;;-146.30;100.00;58188.94;10478394;28;20545;-84
2024/01/12 02:40:30;;;;;;;1.38;0.65;;;;;;;-146.30;100.00;58188.94;10495914;28;20072;-83
2024/01/12 02:45:32;;;;;;;2.50;1.60;;;;;;;-146.30;100.00;58188.94;10446416;28;20489;-84
2024/01/12 02:50:34;;;;;;;0.63;0.47;;;;;;;-146.30;100.00;58188.94;10461721;28;20049;-83
2024/01/12 02:55:36;;;;;;;0.00;0.00;;;;;;;-146.30;100.00;58188.94;10461152;28;20055;-84
2024/01/12 03:00:37;;;;;;;1.80;0.93;;;;;;;-146.30;100.00;58188.94;10461096;28;20045;-84
2024/01/12 03:05:39;;;;;;;0.40;0.40;;;;;;;-146.30;100.00;58188.94;10469425;28;20041;-84
2024/01/12 03:10:41;;;;;;;1.73;1.63;;;;;;;-146.30;100.00;58188.94;10502132;28;20509;-84
2024/01/12 03:15:43;;;;;;;5.68;1.10;;;;;;;-146.30;100.00;58188.94;10502170;28;20090;-83
2024/01/12 03:20:45;;;;;;;0.05;0.05;;;;;;;-146.30;100.00;58188.94;10502429;28;20080;-84
2024/01/12 03:25:47;;;;;;;0.03;0.03;;;;;;;-146.30;100.00;58188.94;10485283;28;20091;-84
2024/01/12 03:30:48;;;;;;;0.47;0.43;;;;;;;-146.30;100.00;58188.94;10501625;28;20083;-84
2024/01/12 03:35:50;;;;;;;6.88;1.00;;;;;;;-146.30;100.00;58188.94;10484667;28;20040;-84
2024/01/12 03:40:52;;;;;;;0.90;0.40;;;;;;;-146.30;100.00;58188.94;10501331;28;20041;-84
2024/01/12 03:45:54;;;;;;;0.00;0.00;;;;;;;-146.30;100.00;58188.94;10484405;28;20167;-84
2024/01/12 03:50:56;;;;;;;0.10;0.10;;;;;;;-146.30;100.00;58188.94;10484020;28;20049;-84
2024/01/12 03:55:57;;;;;;;0.03;0.03;;;;;;;-146.30;100.00;58188.94;10500686;28;20132;-84
2024/01/12 04:00:59;;;;;;;0.13;0.13;;;;;;;-146.30;100.00;58188.94;10500076;28;20082;-85
2024/01/12 04:06:06;;;;;;;0.30;0.30;;;;;;;-146.30;100.00;58188.94;10500530;28;20135;-84
2024/01/12 04:11:08;;;;;;;0.30;0.30;;;;;;;-146.30;100.00;58188.94;10533904;28;20407;-84
2024/01/12 04:16:10;;;;;;;0.25;0.25;;;;;;;-146.30;100.00;58188.94;10483145;28;20072;-84
2024/01/12 04:21:12;;;;;;;0.00;0.00;;;;;;;-146.30;100.00;58188.94;10499212;28;20118;-84
2024/01/12 04:26:14;;;;;;;0.08;0.08;;;;;;;-146.30;100.00;58188.94;10499421;28;20063;-84
2024/01/12 04:31:16;;;;;;;0.10;0.10;;;;;;;-146.30;100.00;58188.94;10499094;28;20048;-84
2024/01/12 04:36:22;;;;;;;0.35;0.35;;;;;;;-146.30;100.00;58188.94;10498639;28;20453;-84
2024/01/12 04:41:24;;;;;;;0.10;0.10;;;;;;;-146.30;100.00;58188.94;10482032;28;20049;-84
2024/01/12 04:46:26;;;;;;;0.28;0.22;;;;;;;-146.30;100.00;58188.94;10481800;28;20049;-84
2024/01/12 04:51:28;;;;;;;0.45;0.45;;;;;;;-146.30;100.00;58188.94;10498599;28;20511;-84
2024/01/12 04:56:30;;;;;;;0.15;0.15;;;;;;;-146.30;100.00;58188.94;10464995;28;20140;-84
2024/01/12 05:01:32;;;;;;;1.55;0.35;;;;;;;-146.30;100.00;58188.94;10481429;28;20377;-84
2024/01/12 05:06:33;;;;;;;11.30;2.05;;;;;;;-146.30;100.00;58188.94;10481136;28;20049;-84
2024/01/12 05:11:35;;;;;;;2.08;0.47;;;;;;;-146.30;100.00;58188.94;10496580;28;20056;-84
2024/01/12 05:16:37;;;;;;;0.05;0.05;;;;;;;-146.30;100.00;58188.94;10481052;28;20119;-84
2024/01/12 05:21:39;;;;;;;0.10;0.10;;;;;;;-146.30;100.00;58188.94;10481658;28;20083;-84
2024/01/12 05:26:42;;;;;;;0.20;0.20;;;;;;;-146.30;100.00;58188.94;10480540;28;20048;-84
2024/01/12 05:31:44;;;;;;;0.38;0.38;;;;;;;-146.30;100.00;58188.94;10496923;28;20569;-84
2024/01/12 05:36:46;;;;;;;0.17;0.15;;;;;;;-146.30;100.00;58188.94;10480251;28;20068;-84
2024/01/12 05:41:47;;;;;;;0.00;0.00;;;;;;;-146.30;100.00;58188.94;10496895;28;20060;-84
2024/01/12 05:46:49;;;;;;;2.45;2.25;;;;;;;-146.30;100.00;58188.94;10480176;28;20127;-84
2024/01/12 05:51:51;;;;;;;0.70;0.63;;;;;;;-146.30;100.00;58188.94;10479793;28;20052;-84
2024/01/12 05:56:53;;;;;;;0.20;0.20;;;;;;;-146.30;100.00;58188.94;10480037;28;20128;-84
2024/01/12 06:01:55;;;;;;;0.13;0.13;;;;;;;-146.30;100.00;58188.94;10479673;28;20135;-84
2024/01/12 06:06:57;;;;;;;0.00;0.00;;;;;;;-146.30;100.00;58188.94;10479741;28;20080;-84
2024/01/12 06:11:58;;;;;;;1.85;1.15;;;;;;;-146.30;100.00;58188.94;10463148;28;20139;-84
2024/01/12 06:17:00;;;;;;;1.48;0.57;;;;;;;-146.30;100.00;58188.94;10462985;28;20079;-84
2024/01/12 06:22:02;;;;;;;0.10;0.10;;;;;;;-146.30;100.00;58188.94;10482185;28;20059;-84
2024/01/12 06:27:04;;;;;;;0.47;0.47;;;;;;;-146.30;100.00;58188.94;10475583;28;20125;-84
2024/01/12 06:32:06;;;;;;;0.38;0.38;;;;;;;-146.30;100.00;58188.94;10503615;28;20113;-84
2024/01/12 06:37:11;;;;;;;0.93;0.65;;;;;;;-146.30;100.00;58188.94;10520157;28;20037;-84
2024/01/12 06:42:13;;;;;;;0.00;0.00;;;;;;;-146.30;100.00;58188.94;10485142;28;20045;-83
2024/01/12 06:47:15;;;;;;;0.80;0.77;;;;;;;-146.30;100.00;58188.94;10459361;28;20047;-83
2024/01/12 06:52:17;;;;;;;0.00;0.00;;;;;;;-146.30;100.00;58188.94;10469481;28;20076;-83
2024/01/12 06:57:19;;;;;;;1.48;0.55;;;;;;;-146.30;100.00;58188.94;10504292;28;20082;-84
2024/01/12 07:02:21;;;;;;;0.47;0.47;;;;;;;-146.30;100.00;58188.94;10486529;28;20048;-83
2024/01/12 07:07:23;;;;;;;0.20;0.20;;;;;;;-146.30;100.00;58188.94;10503008;28;20037;-83
2024/01/12 07:12:25;;;;;;;0.98;0.57;;;;;;;-146.30;100.00;58188.94;10506578;28;20546;-83
2024/01/12 07:17:27;;;;;;;0.73;0.73;;;;;;;-146.30;100.00;58188.94;10503553;28;20048;-83
2024/01/12 07:22:30;;;;;;;0.13;0.13;;;;;;;-146.30;100.00;58188.94;10501227;28;20044;-83
2024/01/12 07:27:31;;;;;;;0.08;0.08;;;;;;;-146.30;100.00;58188.94;10500367;28;20488;-83
2024/01/12 07:32:35;;;;;;;0.00;0.00;;;;;;;-146.30;100.00;58188.94;10503179;28;20377;-83
2024/01/12 07:37:37;;;;;;;0.20;0.20;;;;;;;-146.30;100.00;58188.94;10483926;28;20070;-83
2024/01/12 07:42:39;;;;;;;0.65;0.65;;;;;;;-146.30;100.00;58188.94;10499010;28;20053;-83
2024/01/12 07:47:41;;;;;;;0.20;0.20;;;;;;;-146.30;100.00;58188.94;10504312;28;20499;-83
2024/01/12 07:52:43;;;;;;;2.05;0.85;;;;;;;-146.30;100.00;58188.94;10482989;28;20483;-83
2024/01/12 07:57:44;;;;;;;0.93;0.93;;;;;;;-146.30;100.00;58188.94;10479780;28;20091;-83
2024/01/12 08:02:46;;;;;;;0.00;0.00;;;;;;;-146.30;100.00;58188.94;10488717;28;20045;-83
2024/01/12 08:07:49;;;;;;;0.30;0.30;;;;;;;-146.30;100.00;58188.94;10505490;28;20040;-82
2024/01/12 08:12:51;;;;;;;0.73;0.25;;;;;;;-146.30;100.00;58188.94;10490843;28;20063;-83
2024/01/12 08:17:52;;;;;;;0.00;0.00;;;;;;;-146.30;100.00;58188.94;10475454;28;20048;-82
2024/01/12 08:22:54;;;;;;;0.30;0.30;;;;;;;-146.30;100.00;58188.94;10503795;28;20048;-82
2024/01/12 08:27:56;;;;;;;0.30;0.30;;;;;;;-146.30;100.00;58188.94;10521954;28;20487;-83
2024/01/12 08:32:59;;;;;;;1.80;1.55;;;;;;;-146.30;100.00;58188.94;10459796;28;20098;-82
2024/01/12 08:38:01;;;;;;;2.38;1.75;;;;;;;-146.30;100.00;58188.94;10497659;28;20049;-83
2024/01/12 08:43:03;;;;;;;0.05;0.05;;;;;;;-146.30;100.00;58188.94;10472948;28;20139;-82
2024/01/12 08:48:06;;;;;;;0.32;0.32;;;;;;;-146.30;100.00;58188.94;10481064;28;20064;-83
2024/01/12 08:53:09;;;;;;;0.35;0.35;;;;;;;-146.30;100.00;58188.94;10467733;28;20052;-83
2024/01/12 08:58:11;;;;;;;0.08;0.08;;;;;;;-146.30;100.00;58188.94;10488205;28;20090;-83
2024/01/12 09:03:12;;;;;;;0.20;0.20;;;;;;;-146.30;100.00;58188.94;10484188;28;20112;-83
2024/01/12 09:08:15;;;;;;;0.73;0.73;;;;;;;-146.30;100.00;58188.94;10479049;28;20049;-83
2024/01/12 09:13:17;;;;;;;0.30;0.30;;;;;;;-146.30;100.00;58188.94;10499756;28;20423;-83
2024/01/12 09:18:19;;;;;;;1.25;0.28;;;;;;;-146.30;100.00;58188.94;10483310;28;20197;-82
2024/01/12 09:23:21;;;;;;;0.40;0.20;;;;;;;-146.30;100.00;58188.94;10506070;28;20044;-82
2024/01/12 09:28:23;;;;;;;0.13;0.13;;;;;;;-146.30;100.00;58188.94;10480066;28;20071;-82
2024/01/12 09:33:25;;;;;;;2.05;0.85;;;;;;;-146.30;100.00;58188.94;10502618;28;20127;-83
2024/01/12 09:38:27;;;;;;;0.65;0.25;;;;;;;-146.30;100.00;58188.94;10480582;28;20044;-83
2024/01/12 09:43:29;;;;;;;0.70;0.45;;;;;;;-146.30;100.00;58188.94;10513021;28;20071;-83
2024/01/12 09:48:32;;;;;;;0.28;0.28;;;;;;;-146.30;100.00;58188.94;10474467;28;20048;-83
2024/01/12 09:53:35;;;;;;;0.40;0.40;;;;;;;-146.30;100.00;58188.94;10497954;28;20578;-83
2024/01/12 09:58:38;;;;;;;1.10;0.45;;;;;;;-146.30;100.00;58188.94;10511412;28;20044;-83
2024/01/12 10:03:43;;;;;;;0.00;0.00;;;;;;;-146.30;100.00;58188.94;10517064;28;20056;-83
2024/01/12 10:08:47;;;;;;;0.52;0.52;;;;;;;-146.30;100.00;58188.94;10491084;28;20043;-83
2024/01/12 10:13:49;;;;;;;2.55;1.65;;;;;;;-146.30;100.00;58188.94;10506813;28;20487;-84
2024/01/12 10:18:51;;;;;;;0.28;0.20;;;;;;;-146.30;100.00;58188.94;10481389;28;20067;-83
2024/01/12 10:24:03;;;;;;;0.10;0.10;;;;;;;-146.30;100.00;58188.94;10482585;28;20051;-84
2024/01/12 10:29:05;;;;;;;1.17;0.63;;;;;;;-146.30;100.00;58188.94;10488967;28;20080;-84
2024/01/12 10:34:14;;;;;;;2.50;0.32;;;;;;;-146.30;100.00;58188.94;10496306;28;20055;-84
2024/01/12 10:39:19;;;;;;;0.05;0.05;;;;;;;-146.30;100.00;58188.94;10482745;28;20131;-84
2024/01/12 10:44:22;;;;;;;0.10;0.10;;;;;;;-146.30;100.00;58188.94;10496454;28;20066;-84
2024/01/12 10:49:25;;;;;;;0.45;0.20;;;;;;;-146.30;100.00;58188.94;10493440;28;20055;-84
2024/01/12 10:54:33;;;;;;;0.95;0.30;;;;;;;-146.30;100.00;58188.94;10474236;28;20043;-85
2024/01/12 10:59:36;;;;;;;0.00;0.00;;;;;;;-146.30;100.00;58188.94;10506083;28;20036;-85
2024/01/12 11:04:39;;;;;;;0.73;0.73;;;;;;;-146.30;100.00;58188.94;10507172;28;20085;-85
2024/01/12 11:09:41;;;;;;;0.00;0.00;;;;;;;-146.30;100.00;58188.94;10501513;28;20452;-85
2024/01/12 11:14:43;;;;;;;1.35;0.65;;;;;;;-146.30;100.00;58188.94;10474024;28;20036;-86
2024/01/12 11:19:45;;;;;;;0.10;0.10;;;;;;;-146.30;100.00;58188.94;10482558;28;20135;-86
2024/01/12 11:24:47;;;;;;;0.85;0.65;;;;;;;-146.30;100.00;58188.94;10498741;28;20068;-85
2024/01/12 11:29:57;;;;;;;0.20;0.20;;;;;;;-146.30;100.00;58188.94;10532580;28;20063;-86
2024/01/12 11:35:19;;;;;;;0.57;0.30;;;;;;;-146.30;100.00;58188.94;10497117;28;20707;-86
2024/01/12 11:40:24;;;;;;;0.70;0.30;;;;;;;-146.30;100.00;58188.94;10498062;28;20052;-86
2024/01/12 11:45:27;;;;;;;0.47;0.43;;;;;;;-146.30;100.00;58188.94;10512556;28;20127;-86
2024/01/12 11:50:29;;;;;;;2.03;0.30;;;;;;;-146.30;100.00;58188.94;10503562;28;20131;-86
2024/01/12 11:55:32;;;;;;;0.08;0.03;;;;;;;-146.30;100.00;58188.94;10504598;28;20487;-85
2024/01/12 12:00:34;;;;;;;1.45;1.10;;;;;;;-146.30;100.00;58188.94;10501850;28;20048;-86
2024/01/12 12:05:36;;;;;;;0.10;0.10;;;;;;;-146.30;100.00;58188.94;10492328;28;20037;-86
2024/01/12 12:10:38;;;;;;;0.65;0.40;;;;;;;-146.30;100.00;58188.94;10487627;28;20093;-86
2024/01/12 12:15:47;;;;;;;0.20;0.20;;;;;;;-146.30;100.00;58188.94;10481859;28;20048;-86
2024/01/12 12:20:49;;;;;;;0.28;0.28;;;;;;;-146.30;100.00;58188.94;10510577;28;20746;-86
2024/01/12 12:25:52;;;;;;;0.00;0.00;;;;;;;-146.30;100.00;58188.94;10509232;28;20582;-86
2024/01/12 12:30:55;;;;;;;9.30;1.33;;;;;;;-146.30;100.00;58188.94;10492014;28;20136;-86
2024/01/12 12:36:03;;;;;;;0.60;0.60;;;;;;;-146.30;100.00;58188.94;10499380;28;20139;-87
2024/01/12 12:41:11;;;;;;;2.28;0.60;;;;;;;-146.30;100.00;58188.94;10515041;28;20392;-86
2024/01/12 12:46:13;;;;;;;0.43;0.43;;;;;;;-146.30;100.00;58188.94;10496460;28;20029;-86
2024/01/12 12:51:15;;;;;;;0.35;0.30;;;;;;;-146.30;100.00;58188.94;10467354;28;20086;-86
2024/01/12 12:56:17;;;;;;;0.00;0.00;;;;;;;-146.30;100.00;58188.94;10500408;28;20574;-86
2024/01/12 13:01:19;;;;;;;0.65;0.45;;;;;;;-146.30;100.00;58188.94;10467544;28;20063;-86
2024/01/12 13:06:21;;;;;;;0.57;0.47;;;;;;;-146.30;100.00;58188.94;10482098;28;20124;-86
2024/01/12 13:11:23;;;;;;;0.45;0.32;;;;;;;-146.30;100.00;58188.94;10489341;28;20522;-86
2024/01/12 13:16:25;;;;;;;7.68;0.77;;;;;;;-146.30;100.00;58188.94;10470596;28;20049;-85
2024/01/12 13:21:27;;;;;;;0.00;0.00;;;;;;;-146.30;100.00;58188.94;10513249;28;20036;-87
2024/01/12 13:26:30;;;;;;;0.00;0.00;;;;;;;-146.30;100.00;58188.94;10518859;28;20079;-88
2024/01/12 13:31:32;;;;;;;1.98;1.85;;;;;;;-146.30;100.00;58188.94;10477183;28;20048;-87
2024/01/12 13:36:34;;;;;;;0.68;0.38;;;;;;;-146.30;100.00;58188.94;10514390;28;20130;-87
2024/01/12 13:41:38;;;;;;;0.00;0.00;;;;;;;-146.30;100.00;58188.94;10510437;28;20048;-88
2024/01/12 13:46:40;;;;;;;0.38;0.35;;;;;;;-146.30;100.00;58188.94;10462159;28;20048;-87
2024/01/12 13:51:43;;;;;;;0.10;0.10;;;;;;;-146.30;100.00;58188.94;10483134;28;20562;-88
2024/01/12 13:56:44;;;;;;;0.10;0.10;;;;;;;-146.30;100.00;58188.94;10478676;28;20068;-87
2024/01/12 14:01:47;;;;;;;0.20;0.13;;;;;;;-146.30;100.00;58188.94;10510635;28;20430;-86
2024/01/12 14:06:48;;;;;;;0.90;0.80;;;;;;;-146.30;100.00;58188.94;10520820;28;20707;-88
2024/01/12 14:11:52;;;;;;;0.00;0.00;;;;;;;-146.30;100.00;58188.94;10499299;28;20171;-87
2024/01/12 14:16:53;;;;;;;0.00;0.00;;;;;;;-146.30;100.00;58188.94;10461969;28;20063;-86
2024/01/12 14:21:55;;;;;;;0.10;0.10;;;;;;;-146.30;100.00;58188.94;10492691;28;20553;-87
2024/01/12 14:26:57;;;;;;;0.10;0.10;;;;;;;-146.30;100.00;58188.94;10487158;28;20131;-87
2024/01/12 14:31:59;;;;;;;0.25;0.25;;;;;;;-146.30;100.00;58188.94;10455690;28;20059;-87
2024/01/12 14:37:01;;;;;;;1.75;0.75;;;;;;;-146.30;100.00;58188.94;10482536;28;20109;-87
2024/01/12 14:42:02;;;;;;;0.10;0.10;;;;;;;-146.30;100.00;58188.94;10523635;28;20131;-86
2024/01/12 14:47:07;;;;;;;0.20;0.20;;;;;;;-146.30;100.00;58188.94;10481590;28;20044;-86
2024/01/12 14:52:10;;;;;;;0.00;0.00;;;;;;;-146.30;100.00;58188.94;10508112;28;20056;-88
2024/01/12 14:57:12;;;;;;;0.00;0.00;;;;;;;-146.30;100.00;58188.94;10475683;28;20047;-86
2024/01/12 15:02:14;;;;;;;0.10;0.10;;;;;;;-146.30;100.00;58188.94;10503056;28;20044;-86
2024/01/12 15:07:18;;;;;;;0.10;0.10;;;;;;;-146.30;100.00;58188.94;10503058;28;20041;-86
2024/01/12 15:12:20;;;;;;;0.22;0.17;;;;;;;-146.30;100.00;58188.94;10500452;28;20080;-87
2024/01/12 15:17:23;;;;;;;0.90;0.38;;;;;;;-146.30;100.00;58188.94;10489776;28;20036;-87
2024/01/12 15:22:25;;;;;;;0.00;0.00;;;;;;;-146.30;100.00;58188.94;10485980;28;20052;-85
2024/01/12 15:27:27;;;;;;;0.17;0.17;;;;;;;-146.30;100.00;58188.94;10482037;28;20472;-85
2024/01/12 15:32:28;;;;;;;2.38;0.85;;;;;;;-146.30;100.00;58188.94;10502976;28;20502;-86
2024/01/12 15:37:30;;;;;;;0.40;0.40;;;;;;;-146.30;100.00;58188.94;10475501;28;20267;-85
2024/01/12 15:42:33;;;;;;;0.73;0.50;;;;;;;-146.30;100.00;58188.94;10504370;28;20042;-85
2024/01/12 15:47:45;;;;;;;0.20;0.20;;;;;;;-146.30;100.00;58188.94;10487527;28;20051;-85
2024/01/12 15:52:47;;;;;;;0.43;0.30;;;;;;;-146.30;100.00;58188.94;10516847;28;20040;-84
2024/01/12 15:57:51;;;;;;;0.00;0.00;;;;;;;-146.30;100.00;58188.94;10488160;28;20249;-84
2024/01/12 16:02:53;;;;;;;0.00;0.00;;;;;;;-146.30;100.00;58188.94;10498610;28;20098;-84
2024/01/12 16:07:56;;;;;;;9.80;0.52;;;;;;;-146.30;100.00;58188.94;10471886;28;20051;-84
2024/01/12 16:12:58;;;;;;;0.17;0.17;;;;;;;-146.30;100.00;58188.94;10467312;28;20052;-85
2024/01/12 16:18:00;;;;;;;0.00;0.00;;;;;;;-146.30;100.00;58188.94;10496694;28;20097;-84
2024/01/12 16:23:02;;;;;;;0.60;0.55;;;;;;;-146.30;100.00;58188.94;10502949;28;20058;-84
2024/01/12 16:28:04;;;;;;;0.57;0.55;;;;;;;-146.30;100.00;58188.94;10502649;28;20210;-84
2024/01/12 16:33:06;;;;;;;0.00;0.00;;;;;;;-146.30;100.00;58188.94;10508184;28;20138;-84
2024/01/12 16:38:09;;;;;;;0.10;0.10;;;;;;;-146.30;100.00;58188.94;10491922;28;20044;-84
2024/01/12 16:43:11;;;;;;;0.00;0.00;;;;;;;-146.30;100.00;58188.94;10496785;28;20048;-84
2024/01/12 16:48:12;;;;;;;0.00;0.00;;;;;;;-146.30;100.00;58188.94;10478510;28;21010;-84
2024/01/12 16:53:15;;;;;;;0.10;0.10;;;;;;;-146.30;100.00;58188.94;10503675;28;20450;-83
2024/01/12 16:58:18;;;;;;;0.00;0.00;;;;;;;-146.30;100.00;58188.94;10478156;28;20467;-83
2024/01/12 17:03:21;;;;;;;0.00;0.00;;;;;;;-146.30;100.00;58188.94;10497287;28;20048;-84
2024/01/12 17:08:23;;;;;;;0.10;0.10;;;;;;;-146.30;100.00;58188.94;10504892;28;20036;-84
2024/01/12 17:13:25;;;;;;;0.00;0.00;;;;;;;-146.30;100.00;58188.94;10475390;28;20139;-84
2024/01/12 17:18:26;;;;;;;0.80;0.75;;;;;;;-146.30;100.00;58188.94;10465363;28;20120;-84
2024/01/12 17:23:33;;;;;;;0.10;0.10;;;;;;;-146.30;100.00;58188.94;10507302;28;20148;-84
2024/01/12 17:28:37;;;;;;;0.13;0.13;;;;;;;-146.30;100.00;58188.94;10506498;28;20045;-84
2024/01/12 17:33:39;;;;;;;0.85;0.57;;;;;;;-146.30;100.00;58188.94;10469976;28;20044;-83
2024/01/12 17:38:41;;;;;;;1.15;0.32;;;;;;;-146.30;100.00;58188.94;10469794;28;20109;-82
2024/01/12 17:43:43;;;;;;;0.00;0.00;;;;;;;-146.30;100.00;58188.94;10500268;28;20407;-82
2024/01/12 17:48:45;;;;;;;0.05;0.05;;;;;;;-146.30;100.00;58188.94;10474796;28;20075;-84
2024/01/12 17:53:49;;;;;;;0.20;0.10;;;;;;;-146.30;100.00;58188.94;10484672;28;20048;-83
2024/01/12 17:58:51;;;;;;;0.00;0.00;;;;;;;-146.30;100.00;58188.94;10486760;28;20057;-83
2024/01/12 18:03:54;;;;;;;0.10;0.10;;;;;;;-146.30;100.00;58188.94;10499857;28;20037;-82
2024/01/12 18:08:58;;;;;;;0.45;0.30;;;;;;;-146.30;100.00;58188.94;10477371;28;20446;-83
2024/01/12 18:14:00;;;;;;;1.35;0.52;;;;;;;-146.30;100.00;58188.94;10495261;28;20132;-83
2024/01/12 18:19:01;;;;;;;1.10;0.65;;;;;;;-146.30;100.00;58188.94;10496765;28;20052;-83
2024/01/12 18:24:04;;;;;;;0.20;0.20;;;;;;;-146.30;100.00;58188.94;10525789;28;20060;-83
2024/01/12 18:29:06;;;;;;;2.00;0.65;;;;;;;-146.30;100.00;58188.94;10500444;28;20106;-83
2024/01/12 18:34:08;;;;;;;0.50;0.50;;;;;;;-146.30;100.00;58188.94;10504459;28;20122;-83
2024/01/12 18:39:10;;;;;;;0.00;0.00;;;;;;;-146.30;100.00;58188.94;10495235;28;20041;-83
2024/01/12 18:44:12;;;;;;;0.10;0.10;;;;;;;-146.30;100.00;58188.94;10499425;28;20041;-84
2024/01/12 18:49:14;;;;;;;0.57;0.57;;;;;;;-146.30;100.00;58188.94;10501917;28;20040;-84
2024/01/12 18:54:18;;;;;;;0.00;0.00;;;;;;;-146.30;100.00;58188.94;10504915;28;20483;-83
2024/01/12 18:59:20;;;;;;;1.15;0.43;;;;;;;-146.30;100.00;58188.94;10501288;28;20050;-83
2024/01/12 19:04:22;;;;;;;0.38;0.38;;;;;;;-146.30;100.00;58188.94;10486225;28;20048;-83
2024/01/12 19:09:24;;;;;;;0.00;0.00;;;;;;;-146.30;100.00;58188.94;10496015;28;20041;-83
2024/01/12 19:14:26;;;;;;;0.13;0.13;;;;;;;-146.30;100.00;58188.94;10524392;28;20127;-83
2024/01/12 19:19:28;;;;;;;0.10;0.10;;;;;;;-146.30;100.00;58188.94;10488466;28;20067;-83
2024/01/12 19:24:30;;;;;;;0.03;0.03;;;;;;;-146.30;100.00;58188.94;10483710;28;21620;-82
2024/01/12 19:29:33;;;;;;;1.52;1.27;;;;;;;-146.30;100.00;58188.94;10487011;28;20160;-83
2024/01/12 19:34:35;;;;;;;1.23;1.15;;;;;;;-146.30;100.00;58188.94;10501031;28;20102;-83
2024/01/12 19:39:37;;;;;;;0.10;0.10;;;;;;;-146.30;100.00;58188.94;10494927;28;20055;-83
2024/01/12 19:44:38;;;;;;;0.03;0.03;;;;;;;-146.30;100.00;58188.94;10488737;28;20131;-82
2024/01/12 19:49:41;;;;;;;0.32;0.32;;;;;;;-146.30;100.00;58188.94;10474095;28;20051;-83
2024/01/12 19:54:43;;;;;;;0.00;0.00;;;;;;;-146.30;100.00;58188.94;10484348;28;20066;-82
2024/01/12 19:59:45;;;;;;;0.00;0.00;;;;;;;-146.30;100.00;58188.94;10492057;28;20056;-82
2024/01/12 20:04:47;;;;;;;0.13;0.13;;;;;;;-146.30;100.00;58188.94;10500302;28;20446;-83
2024/01/12 20:09:49;;;;;;;0.00;0.00;;;;;;;-146.30;100.00;58188.94;10505713;28;20045;-83
2024/01/12 20:14:51;;;;;;;0.00;0.00;;;;;;;-146.30;100.00;58188.94;10488851;28;20048;-82
2024/01/12 20:19:53;;;;;;;0.32;0.30;;;;;;;-146.30;100.00;58188.94;10489406;28;20044;-82
2024/01/12 20:24:55;;;;;;;0.30;0.28;;;;;;;-146.30;100.00;58188.94;10500877;28;20487;-83
2024/01/12 20:29:57;;;;;;;0.00;0.00;;;;;;;-146.30;100.00;58188.94;10507779;28;20490;-83
2024/01/12 20:34:59;;;;;;;0.00;0.00;;;;;;;-146.30;100.00;58188.94;10517741;28;20614;-82
2024/01/12 20:40:02;;;;;;;0.10;0.10;;;;;;;-146.30;100.00;58188.94;10484496;28;20071;-82
2024/01/12 20:45:05;;;;;;;0.00;0.00;;;;;;;-146.30;100.00;58188.94;10497260;28;20055;-82
2024/01/12 20:50:08;;;;;;;0.13;0.13;;;;;;;-146.30;100.00;58188.94;10494331;28;20044;-81
2024/01/12 20:55:09;;;;;;;0.20;0.15;;;;;;;-146.30;100.00;58188.94;10516093;28;20044;-82
2024/01/12 21:00:15;;;;;;;0.35;0.15;;;;;;;-146.30;100.00;58188.94;10485480;28;20076;-81
2024/01/12 21:05:18;;;;;;;0.00;0.00;;;;;;;-146.30;100.00;58188.94;10480289;28;20415;-83
2024/01/12 21:10:20;;;;;;;0.00;0.00;;;;;;;-146.30;100.00;58188.94;10478780;28;20499;-82
2024/01/12 21:15:23;;;;;;;0.00;0.00;;;;;;;-146.30;100.00;58188.94;10496505;28;20051;-82
2024/01/12 21:20:26;;;;;;;0.10;0.10;;;;;;;-146.30;100.00;58188.94;10500875;28;20048;-82
2024/01/12 21:25:28;;;;;;;0.57;0.28;;;;;;;-146.30;100.00;58188.94;10513158;28;20036;-82
2024/01/12 21:30:30;;;;;;;0.52;0.52;;;;;;;-146.30;100.00;58188.94;10482553;28;20076;-82
2024/01/12 21:35:32;;;;;;;0.05;0.05;;;;;;;-146.30;100.00;58188.94;10500438;28;20127;-83
2024/01/12 21:40:34;;;;;;;0.20;0.20;;;;;;;-146.30;100.00;58188.94;10465539;28;20457;-83
2024/01/12 21:45:36;;;;;;;0.13;0.13;;;;;;;-146.30;100.00;58188.94;10488159;28;20048;-82
2024/01/12 21:50:39;;;;;;;1.40;0.45;;;;;;;-146.30;100.00;58188.94;10496617;28;20055;-82
2024/01/12 21:55:42;;;;;;;0.00;0.00;;;;;;;-146.30;100.00;58188.94;10497651;28;20044;-82
2024/01/12 22:00:44;;;;;;;1.30;0.57;;;;;;;-146.30;100.00;58188.94;10476355;28;20139;-82
2024/01/12 22:05:45;;;;;;;0.00;0.00;;;;;;;-146.30;100.00;58188.94;10506056;28;20051;-82
2024/01/12 22:10:48;;;;;;;0.00;0.00;;;;;;;-146.30;100.00;58188.94;10520138;28;20097;-82
2024/01/12 22:15:49;;;;;;;0.20;0.10;;;;;;;-146.30;100.00;58188.94;10472523;28;20054;-82
2024/01/12 22:20:52;;;;;;;0.82;0.32;;;;;;;-146.30;100.00;58188.94;10508023;28;20071;-82
2024/01/12 22:25:54;;;;;;;0.15;0.15;;;;;;;-146.30;100.00;58188.94;10461861;28;20119;-82
2024/01/12 22:30:56;;;;;;;0.25;0.25;;;;;;;-146.30;100.00;58188.94;10490390;28;20044;-82
2024/01/12 22:35:58;;;;;;;0.70;0.32;;;;;;;-146.30;100.00;58188.94;10510677;28;20049;-82
2024/01/12 22:41:00;;;;;;;0.00;0.00;;;;;;;-146.30;100.00;58188.94;10510701;28;20057;-82